sensor_id;sensor_type;location;lat;lon;timestamp;pressure;altitude;pressure_sealevel;temperature;humidity
35778;BME280;21899;42.662;23.316;2023-04-04T00:02:08;92980.59;;;6.80;100.00
35778;BME280;21899;42.662;23.316;2023-04-04T00:04:34;92968.75;;;6.85;100.00
35778;BME280;21899;42.662;23.316;2023-04-04T00:07:00;92974.38;;;6.94;100.00
35778;BME280;21899;42.662;23.316;2023-04-04T00:09:25;92969.81;;;6.94;100.00
35778;BME280;21899;42.662;23.316;2023-04-04T00:11:51;92982.22;;;7.08;100.00
35778;BME280;21899;42.662;23.316;2023-04-04T00:14:16;92987.50;;;7.11;100.00
35778;BME280;21899;42.662;23.316;2023-04-04T00:16:42;92994.28;;;7.16;100.00
35778;BME280;21899;42.662;23.316;2023-04-04T00:19:07;92998.03;;;7.22;100.00
35778;BME280;21899;42.662;23.316;2023-04-04T00:21:35;92984.72;;;7.25;100.00
35778;BME280;21899;42.662;23.316;2023-04-04T00:24:01;92993.69;;;7.38;100.00
35778;BME280;21899;42.662;23.316;2023-04-04T00:26:26;92994.81;;;7.37;100.00
35778;BME280;21899;42.662;23.316;2023-04-04T00:28:52;92984.63;;;7.32;100.00
35778;BME280;21899;42.662;23.316;2023-04-04T00:31:17;92979.28;;;7.32;100.00
35778;BME280;21899;42.662;23.316;2023-04-04T00:33:43;92964.13;;;7.29;100.00
35778;BME280;21899;42.662;23.316;2023-04-04T00:36:09;92971.31;;;7.32;100.00
35778;BME280;21899;42.662;23.316;2023-04-04T00:38:35;92958.78;;;7.29;100.00
35778;BME280;21899;42.662;23.316;2023-04-04T00:41:01;92969.44;;;7.29;100.00
35778;BME280;21899;42.662;23.316;2023-04-04T00:43:28;92959.16;;;7.31;100.00
35778;BME280;21899;42.662;23.316;2023-04-04T00:45:53;92960.31;;;7.30;100.00
35778;BME280;21899;42.662;23.316;2023-04-04T00:48:19;92951.53;;;7.33;100.00
35778;BME280;21899;42.662;23.316;2023-04-04T00:50:45;92947.00;;;7.30;100.00
35778;BME280;21899;42.662;23.316;2023-04-04T00:53:10;92946.66;;;7.28;100.00
35778;BME280;21899;42.662;23.316;2023-04-04T00:55:39;92945.06;;;7.34;100.00
35778;BME280;21899;42.662;23.316;2023-04-04T00:58:05;92941.63;;;7.34;100.00
35778;BME280;21899;42.662;23.316;2023-04-04T01:00:33;92953.03;;;7.34;100.00
35778;BME280;21899;42.662;23.316;2023-04-04T01:03:00;92956.06;;;7.36;100.00
35778;BME280;21899;42.662;23.316;2023-04-04T01:05:25;92954.16;;;7.37;100.00
35778;BME280;21899;42.662;23.316;2023-04-04T01:07:51;92958.97;;;7.45;100.00
35778;BME280;21899;42.662;23.316;2023-04-04T01:10:16;92954.75;;;7.51;100.00
35778;BME280;21899;42.662;23.316;2023-04-04T01:12:42;92961.97;;;7.51;100.00
35778;BME280;21899;42.662;23.316;2023-04-04T01:15:08;92968.41;;;7.53;100.00
35778;BME280;21899;42.662;23.316;2023-04-04T01:17:33;92962.28;;;7.56;100.00
35778;BME280;21899;42.662;23.316;2023-04-04T01:20:10;92960.78;;;7.55;100.00
35778;BME280;21899;42.662;23.316;2023-04-04T01:22:37;92967.47;;;7.67;100.00
35778;BME280;21899;42.662;23.316;2023-04-04T01:25:04;92974.00;;;7.62;100.00
35778;BME280;21899;42.662;23.316;2023-04-04T01:27:31;92953.66;;;7.45;100.00
35778;BME280;21899;42.662;23.316;2023-04-04T01:29:56;92964.22;;;7.52;100.00
35778;BME280;21899;42.662;23.316;2023-04-04T01:35:17;92966.22;;;7.45;100.00
35778;BME280;21899;42.662;23.316;2023-04-04T01:38:01;92963.59;;;7.41;100.00
35778;BME280;21899;42.662;23.316;2023-04-04T01:40:32;92947.53;;;7.18;100.00
35778;BME280;21899;42.662;23.316;2023-04-04T01:43:01;92945.28;;;7.13;100.00
35778;BME280;21899;42.662;23.316;2023-04-04T01:45:27;92943.13;;;7.01;100.00
35778;BME280;21899;42.662;23.316;2023-04-04T01:47:54;92931.78;;;6.97;100.00
35778;BME280;21899;42.662;23.316;2023-04-04T01:50:20;92933.34;;;6.91;100.00
35778;BME280;21899;42.662;23.316;2023-04-04T01:52:46;92916.72;;;6.84;100.00
35778;BME280;21899;42.662;23.316;2023-04-04T01:55:11;92917.16;;;6.79;100.00
35778;BME280;21899;42.662;23.316;2023-04-04T01:57:37;92917.56;;;6.77;100.00
35778;BME280;21899;42.662;23.316;2023-04-04T02:00:02;92912.28;;;6.74;100.00
35778;BME280;21899;42.662;23.316;2023-04-04T02:02:29;92913.06;;;6.71;100.00
35778;BME280;21899;42.662;23.316;2023-04-04T02:04:55;92910.84;;;6.66;100.00
35778;BME280;21899;42.662;23.316;2023-04-04T02:07:20;92913.88;;;6.64;100.00
35778;BME280;21899;42.662;23.316;2023-04-04T02:09:45;92915.41;;;6.61;100.00
35778;BME280;21899;42.662;23.316;2023-04-04T02:12:11;92921.50;;;6.62;100.00
35778;BME280;21899;42.662;23.316;2023-04-04T02:14:36;92916.19;;;6.62;100.00
35778;BME280;21899;42.662;23.316;2023-04-04T02:17:02;92913.09;;;6.67;100.00
35778;BME280;21899;42.662;23.316;2023-04-04T02:19:27;92915.38;;;6.65;100.00
35778;BME280;21899;42.662;23.316;2023-04-04T02:21:53;92910.50;;;6.60;100.00
35778;BME280;21899;42.662;23.316;2023-04-04T02:24:18;92899.16;;;6.56;100.00
35778;BME280;21899;42.662;23.316;2023-04-04T02:26:44;92904.38;;;6.63;100.00
35778;BME280;21899;42.662;23.316;2023-04-04T02:29:09;92900.22;;;6.62;100.00
35778;BME280;21899;42.662;23.316;2023-04-04T02:31:35;92910.88;;;6.62;100.00
35778;BME280;21899;42.662;23.316;2023-04-04T02:34:00;92910.88;;;6.62;100.00
35778;BME280;21899;42.662;23.316;2023-04-04T02:36:26;92906.34;;;6.59;100.00
35778;BME280;21899;42.662;23.316;2023-04-04T02:38:51;92913.78;;;6.71;100.00
35778;BME280;21899;42.662;23.316;2023-04-04T02:41:17;92908.84;;;6.73;100.00
35778;BME280;21899;42.662;23.316;2023-04-04T02:43:42;92913.06;;;6.71;100.00
35778;BME280;21899;42.662;23.316;2023-04-04T02:46:08;92913.03;;;6.74;100.00
35778;BME280;21899;42.662;23.316;2023-04-04T02:48:33;92918.66;;;6.80;100.00
35778;BME280;21899;42.662;23.316;2023-04-04T02:51:00;92917.56;;;6.77;100.00
35778;BME280;21899;42.662;23.316;2023-04-04T02:53:26;92916.47;;;6.71;100.00
35778;BME280;21899;42.662;23.316;2023-04-04T02:55:52;92914.59;;;6.68;100.00
35778;BME280;21899;42.662;23.316;2023-04-04T02:58:17;92919.47;;;6.73;100.00
35778;BME280;21899;42.662;23.316;2023-04-04T03:00:43;92916.03;;;6.76;100.00
35778;BME280;21899;42.662;23.316;2023-04-04T03:03:11;92923.19;;;6.83;100.00
35778;BME280;21899;42.662;23.316;2023-04-04T03:05:36;92917.53;;;6.81;100.00
35778;BME280;21899;42.662;23.316;2023-04-04T03:08:02;92926.59;;;6.83;100.00
35778;BME280;21899;42.662;23.316;2023-04-04T03:10:29;92922.75;;;6.88;100.00
35778;BME280;21899;42.662;23.316;2023-04-04T03:12:54;92934.84;;;6.96;100.00
35778;BME280;21899;42.662;23.316;2023-04-04T03:15:20;92932.53;;;6.98;100.00
35778;BME280;21899;42.662;23.316;2023-04-04T03:17:46;92929.13;;;6.97;100.00
35778;BME280;21899;42.662;23.316;2023-04-04T03:20:12;92922.22;;;7.03;100.00
35778;BME280;21899;42.662;23.316;2023-04-04T03:22:39;92930.94;;;7.07;100.00
35778;BME280;21899;42.662;23.316;2023-04-04T03:25:04;92931.16;;;7.20;100.00
35778;BME280;21899;42.662;23.316;2023-04-04T03:27:30;92931.13;;;7.23;100.00
35778;BME280;21899;42.662;23.316;2023-04-04T03:29:57;92924.63;;;7.24;100.00
35778;BME280;21899;42.662;23.316;2023-04-04T03:32:23;92934.16;;;7.25;100.00
35778;BME280;21899;42.662;23.316;2023-04-04T03:34:49;92934.59;;;7.20;100.00
35778;BME280;21899;42.662;23.316;2023-04-04T03:37:14;92937.56;;;7.22;100.00
35778;BME280;21899;42.662;23.316;2023-04-04T03:39:40;92934.81;;;7.33;100.00
35778;BME280;21899;42.662;23.316;2023-04-04T03:42:05;92930.97;;;7.34;100.00
35778;BME280;21899;42.662;23.316;2023-04-04T03:44:30;92940.47;;;7.38;100.00
35778;BME280;21899;42.662;23.316;2023-04-04T03:46:56;92942.72;;;7.40;100.00
35778;BME280;21899;42.662;23.316;2023-04-04T03:49:21;92937.75;;;7.42;100.00
35778;BME280;21899;42.662;23.316;2023-04-04T03:51:47;92933.44;;;7.51;100.00
35778;BME280;21899;42.662;23.316;2023-04-04T03:54:12;92928.53;;;7.50;100.00
35778;BME280;21899;42.662;23.316;2023-04-04T03:56:38;92933.00;;;7.56;100.00
35778;BME280;21899;42.662;23.316;2023-04-04T03:59:03;92933.84;;;7.50;100.00
35778;BME280;21899;42.662;23.316;2023-04-04T04:01:29;92936.81;;;7.55;100.00
35778;BME280;21899;42.662;23.316;2023-04-04T04:03:54;92938.69;;;7.58;100.00
35778;BME280;21899;42.662;23.316;2023-04-04T04:06:20;92943.56;;;7.63;100.00
35778;BME280;21899;42.662;23.316;2023-04-04T04:08:46;92941.59;;;7.67;100.00
35778;BME280;21899;42.662;23.316;2023-04-04T04:11:12;92940.09;;;7.66;100.00
35778;BME280;21899;42.662;23.316;2023-04-04T04:13:37;92927.09;;;7.72;100.00
35778;BME280;21899;42.662;23.316;2023-04-04T04:16:04;92935.84;;;7.72;100.00
35778;BME280;21899;42.662;23.316;2023-04-04T04:18:30;92927.19;;;7.65;100.00
35778;BME280;21899;42.662;23.316;2023-04-04T04:20:59;92929.47;;;7.66;100.00
35778;BME280;21899;42.662;23.316;2023-04-04T04:23:26;92933.97;;;7.69;100.00
35778;BME280;21899;42.662;23.316;2023-04-04T04:25:52;92941.13;;;7.76;100.00
35778;BME280;21899;42.662;23.316;2023-04-04T04:28:17;92941.13;;;7.76;100.00
35778;BME280;21899;42.662;23.316;2023-04-04T04:30:43;92954.44;;;7.76;100.00
35778;BME280;21899;42.662;23.316;2023-04-04T04:33:09;92954.44;;;7.76;100.00
35778;BME280;21899;42.662;23.316;2023-04-04T04:35:37;92961.97;;;7.81;100.00
35778;BME280;21899;42.662;23.316;2023-04-04T04:38:04;92963.44;;;7.85;100.00
35778;BME280;21899;42.662;23.316;2023-04-04T04:40:31;92968.06;;;7.81;100.00
35778;BME280;21899;42.662;23.316;2023-04-04T04:42:56;92967.31;;;7.81;100.00
35778;BME280;21899;42.662;23.316;2023-04-04T04:45:22;92968.81;;;7.82;100.00
35778;BME280;21899;42.662;23.316;2023-04-04T04:47:47;92974.84;;;7.86;100.00
35778;BME280;21899;42.662;23.316;2023-04-04T04:50:13;92968.75;;;7.85;100.00
35778;BME280;21899;42.662;23.316;2023-04-04T04:52:38;92982.34;;;7.94;100.00
35778;BME280;21899;42.662;23.316;2023-04-04T04:55:04;92986.44;;;8.03;100.00
35778;BME280;21899;42.662;23.316;2023-04-04T04:57:30;92989.78;;;8.07;100.00
35778;BME280;21899;42.662;23.316;2023-04-04T04:59:56;92984.81;;;8.09;100.00
35778;BME280;21899;42.662;23.316;2023-04-04T05:02:21;92980.09;;;7.93;100.00
35778;BME280;21899;42.662;23.316;2023-04-04T05:04:47;92996.72;;;8.01;100.00
35778;BME280;21899;42.662;23.316;2023-04-04T05:07:12;92987.94;;;8.04;100.00
35778;BME280;21899;42.662;23.316;2023-04-04T05:09:38;92995.56;;;8.02;100.00
35778;BME280;21899;42.662;23.316;2023-04-04T05:12:03;92999.41;;;8.01;100.00
35778;BME280;21899;42.662;23.316;2023-04-04T05:14:29;92993.25;;;8.04;100.00
35778;BME280;21899;42.662;23.316;2023-04-04T05:16:54;93001.13;;;8.14;100.00
35778;BME280;21899;42.662;23.316;2023-04-04T05:19:20;92993.03;;;8.25;100.00
35778;BME280;21899;42.662;23.316;2023-04-04T05:21:45;93006.63;;;8.30;100.00
35778;BME280;21899;42.662;23.316;2023-04-04T05:24:11;93010.00;;;8.34;100.00
35778;BME280;21899;42.662;23.316;2023-04-04T05:26:37;93012.50;;;8.45;100.00
35778;BME280;21899;42.662;23.316;2023-04-04T05:29:02;93014.03;;;8.46;100.00
35778;BME280;21899;42.662;23.316;2023-04-04T05:31:28;93023.44;;;8.54;100.00
35778;BME280;21899;42.662;23.316;2023-04-04T05:33:53;93017.25;;;8.60;100.00
35778;BME280;21899;42.662;23.316;2023-04-04T05:36:19;93019.50;;;8.62;100.00
35778;BME280;21899;42.662;23.316;2023-04-04T05:38:44;93009.66;;;8.59;100.00
35778;BME280;21899;42.662;23.316;2023-04-04T05:41:09;93017.88;;;8.68;100.00
35778;BME280;21899;42.662;23.316;2023-04-04T05:43:35;93020.31;;;8.59;100.00
35778;BME280;21899;42.662;23.316;2023-04-04T05:46:01;93015.22;;;8.68;100.00
35778;BME280;21899;42.662;23.316;2023-04-04T05:48:26;93029.47;;;8.81;100.00
35778;BME280;21899;42.662;23.316;2023-04-04T05:50:51;93021.97;;;8.99;100.00
35778;BME280;21899;42.662;23.316;2023-04-04T05:53:17;93032.19;;;9.04;100.00
35778;BME280;21899;42.662;23.316;2023-04-04T05:55:43;93021.31;;;9.14;100.00
35778;BME280;21899;42.662;23.316;2023-04-04T05:58:08;93031.59;;;9.16;100.00
35778;BME280;21899;42.662;23.316;2023-04-04T06:00:33;93033.63;;;9.32;100.00
35778;BME280;21899;42.662;23.316;2023-04-04T06:02:59;93031.16;;;9.41;100.00
35778;BME280;21899;42.662;23.316;2023-04-04T06:05:24;93030.28;;;9.47;100.00
35778;BME280;21899;42.662;23.316;2023-04-04T06:07:50;93036.25;;;9.55;100.00
35778;BME280;21899;42.662;23.316;2023-04-04T06:10:15;93032.63;;;9.45;100.00
35778;BME280;21899;42.662;23.316;2023-04-04T06:12:41;93046.28;;;9.47;100.00
35778;BME280;21899;42.662;23.316;2023-04-04T06:15:06;93043.84;;;9.56;100.00
35778;BME280;21899;42.662;23.316;2023-04-04T06:17:32;93044.41;;;9.67;100.00
35778;BME280;21899;42.662;23.316;2023-04-04T06:19:57;93051.00;;;9.82;100.00
35778;BME280;21899;42.662;23.316;2023-04-04T06:22:23;93044.75;;;9.89;100.00
35778;BME280;21899;42.662;23.316;2023-04-04T06:24:48;93051.69;;;10.06;100.00
35778;BME280;21899;42.662;23.316;2023-04-04T06:27:14;93048.31;;;10.21;100.00
35778;BME280;21899;42.662;23.316;2023-04-04T06:29:40;93053.19;;;10.46;100.00
35778;BME280;21899;42.662;23.316;2023-04-04T06:32:05;93056.00;;;10.39;100.00
35778;BME280;21899;42.662;23.316;2023-04-04T06:34:31;93064.84;;;10.16;100.00
35778;BME280;21899;42.662;23.316;2023-04-04T06:36:56;93058.13;;;10.08;100.00
35778;BME280;21899;42.662;23.316;2023-04-04T06:39:22;93073.97;;;9.99;100.00
35778;BME280;21899;42.662;23.316;2023-04-04T06:41:47;93084.22;;;9.39;100.00
35778;BME280;21899;42.662;23.316;2023-04-04T06:44:13;93078.31;;;8.51;100.00
35778;BME280;21899;42.662;23.316;2023-04-04T06:46:38;93098.66;;;7.74;100.00
35778;BME280;21899;42.662;23.316;2023-04-04T06:49:04;93106.28;;;7.35;100.00
35778;BME280;21899;42.662;23.316;2023-04-04T06:51:32;93112.75;;;6.87;100.00
35778;BME280;21899;42.662;23.316;2023-04-04T06:53:59;93122.06;;;6.54;100.00
35778;BME280;21899;42.662;23.316;2023-04-04T06:56:25;93107.78;;;6.27;100.00
35778;BME280;21899;42.662;23.316;2023-04-04T06:58:51;93135.88;;;6.28;100.00
35778;BME280;21899;42.662;23.316;2023-04-04T07:01:17;93133.25;;;6.14;100.00
35778;BME280;21899;42.662;23.316;2023-04-04T07:03:43;93137.50;;;5.94;100.00
35778;BME280;21899;42.662;23.316;2023-04-04T07:06:09;93138.72;;;5.65;100.00
35778;BME280;21899;42.662;23.316;2023-04-04T07:08:35;93158.41;;;5.64;100.00
35778;BME280;21899;42.662;23.316;2023-04-04T07:11:01;93174.72;;;5.62;100.00
35778;BME280;21899;42.662;23.316;2023-04-04T07:13:26;93173.59;;;5.53;100.00
35778;BME280;21899;42.662;23.316;2023-04-04T07:15:52;93188.78;;;5.34;100.00
35778;BME280;21899;42.662;23.316;2023-04-04T07:18:18;93187.25;;;5.19;100.00
35778;BME280;21899;42.662;23.316;2023-04-04T07:20:46;93185.75;;;5.18;100.00
35778;BME280;21899;42.662;23.316;2023-04-04T07:23:31;93203.19;;;5.23;100.00
35778;BME280;21899;42.662;23.316;2023-04-04T07:25:56;93198.25;;;5.18;100.00
35778;BME280;21899;42.662;23.316;2023-04-04T07:28:22;93204.31;;;5.08;100.00
35778;BME280;21899;42.662;23.316;2023-04-04T07:30:47;93215.28;;;4.92;100.00
35778;BME280;21899;42.662;23.316;2023-04-04T07:33:13;93212.63;;;4.89;100.00
35778;BME280;21899;42.662;23.316;2023-04-04T07:35:38;93233.09;;;4.99;100.00
35778;BME280;21899;42.662;23.316;2023-04-04T07:38:04;93216.41;;;4.95;100.00
35778;BME280;21899;42.662;23.316;2023-04-04T07:40:29;93223.25;;;4.92;100.00
35778;BME280;21899;42.662;23.316;2023-04-04T07:42:56;93237.25;;;5.03;100.00
35778;BME280;21899;42.662;23.316;2023-04-04T07:45:21;93230.06;;;5.00;100.00
35778;BME280;21899;42.662;23.316;2023-04-04T07:47:47;93224.72;;;4.83;100.00
35778;BME280;21899;42.662;23.316;2023-04-04T07:50:12;93232.28;;;4.88;100.00
35778;BME280;21899;42.662;23.316;2023-04-04T07:52:38;93238.34;;;4.85;100.00
35778;BME280;21899;42.662;23.316;2023-04-04T07:55:04;93232.28;;;4.84;100.00
35778;BME280;21899;42.662;23.316;2023-04-04T07:57:40;93238.78;;;5.04;100.00
35778;BME280;21899;42.662;23.316;2023-04-04T08:00:06;93253.56;;;5.12;100.00
35778;BME280;21899;42.662;23.316;2023-04-04T08:02:36;93258.09;;;5.08;100.00
35778;BME280;21899;42.662;23.316;2023-04-04T08:05:02;93266.03;;;4.94;100.00
35778;BME280;21899;42.662;23.316;2023-04-04T08:07:28;93257.69;;;4.99;100.00
35778;BME280;21899;42.662;23.316;2023-04-04T08:09:53;93255.47;;;5.19;100.00
35778;BME280;21899;42.662;23.316;2023-04-04T08:12:19;93268.72;;;5.22;100.00
35778;BME280;21899;42.662;23.316;2023-04-04T08:14:45;93261.91;;;5.14;100.00
35778;BME280;21899;42.662;23.316;2023-04-04T08:17:10;93263.44;;;5.22;100.00
35778;BME280;21899;42.662;23.316;2023-04-04T08:19:37;93272.50;;;5.00;100.00
35778;BME280;21899;42.662;23.316;2023-04-04T08:22:02;93279.72;;;5.07;100.00
35778;BME280;21899;42.662;23.316;2023-04-04T08:24:27;93278.53;;;5.04;100.00
35778;BME280;21899;42.662;23.316;2023-04-04T08:26:53;93282.72;;;5.12;100.00
35778;BME280;21899;42.662;23.316;2023-04-04T08:29:18;93298.28;;;5.07;100.00
35778;BME280;21899;42.662;23.316;2023-04-04T08:31:44;93296.72;;;5.06;100.00
35778;BME280;21899;42.662;23.316;2023-04-04T08:34:09;93287.97;;;4.84;100.00
35778;BME280;21899;42.662;23.316;2023-04-04T08:36:35;93300.84;;;4.89;100.00
35778;BME280;21899;42.662;23.316;2023-04-04T08:39:00;93302.69;;;4.71;100.00
35778;BME280;21899;42.662;23.316;2023-04-04T08:41:28;93298.13;;;4.68;100.00
35778;BME280;21899;42.662;23.316;2023-04-04T08:43:55;93301.91;;;4.64;100.00
35778;BME280;21899;42.662;23.316;2023-04-04T08:46:22;93307.91;;;4.54;100.00
35778;BME280;21899;42.662;23.316;2023-04-04T08:48:49;93309.47;;;4.65;100.00
35778;BME280;21899;42.662;23.316;2023-04-04T08:51:21;93298.09;;;4.54;100.00
35778;BME280;21899;42.662;23.316;2023-04-04T08:53:46;93312.53;;;4.67;100.00
35778;BME280;21899;42.662;23.316;2023-04-04T08:56:12;93311.75;;;4.67;100.00
35778;BME280;21899;42.662;23.316;2023-04-04T08:58:38;93316.25;;;4.52;100.00
35778;BME280;21899;42.662;23.316;2023-04-04T09:01:05;93311.59;;;4.35;100.00
35778;BME280;21899;42.662;23.316;2023-04-04T09:03:32;93326.03;;;4.48;100.00
35778;BME280;21899;42.662;23.316;2023-04-04T09:06:00;93332.44;;;4.40;100.00
35778;BME280;21899;42.662;23.316;2023-04-04T09:08:27;93323.38;;;4.41;100.00
35778;BME280;21899;42.662;23.316;2023-04-04T09:10:53;93334.78;;;4.52;100.00
35778;BME280;21899;42.662;23.316;2023-04-04T09:13:19;93337.41;;;4.49;100.00
35778;BME280;21899;42.662;23.316;2023-04-04T09:15:46;93334.28;;;4.29;100.00
35778;BME280;21899;42.662;23.316;2023-04-04T09:18:12;93335.03;;;4.26;100.00
35778;BME280;21899;42.662;23.316;2023-04-04T09:23:05;93333.47;;;4.18;100.00
35778;BME280;21899;42.662;23.316;2023-04-04T09:25:32;93343.59;;;4.09;100.00
35778;BME280;21899;42.662;23.316;2023-04-04T09:27:58;93344.03;;;4.15;100.00
35778;BME280;21899;42.662;23.316;2023-04-04T09:30:23;93340.31;;;4.26;100.00
35778;BME280;21899;42.662;23.316;2023-04-04T09:32:49;93344.41;;;4.13;100.00
35778;BME280;21899;42.662;23.316;2023-04-04T09:35:15;93333.31;;;3.97;100.00
35778;BME280;21899;42.662;23.316;2023-04-04T09:37:41;93345.09;;;4.03;100.00
35778;BME280;21899;42.662;23.316;2023-04-04T09:40:08;93360.63;;;4.08;100.00
35778;BME280;21899;42.662;23.316;2023-04-04T09:42:34;93358.34;;;4.10;100.00
35778;BME280;21899;42.662;23.316;2023-04-04T09:45:01;93355.28;;;4.01;100.00
35778;BME280;21899;42.662;23.316;2023-04-04T09:47:27;93353.16;;;4.24;100.00
35778;BME280;21899;42.662;23.316;2023-04-04T09:49:58;93341.03;;;4.23;100.00
35778;BME280;21899;42.662;23.316;2023-04-04T09:52:24;93345.25;;;4.28;100.00
35778;BME280;21899;42.662;23.316;2023-04-04T09:54:57;93356.25;;;4.37;100.00
35778;BME280;21899;42.662;23.316;2023-04-04T09:57:33;93353.28;;;4.45;100.00
35778;BME280;21899;42.662;23.316;2023-04-04T10:00:01;93351.44;;;4.56;100.00
35778;BME280;21899;42.662;23.316;2023-04-04T10:02:29;93348.44;;;4.58;96.50
35778;BME280;21899;42.662;23.316;2023-04-04T10:04:55;93347.28;;;4.55;95.76
35778;BME280;21899;42.662;23.316;2023-04-04T10:07:26;93347.72;;;4.68;97.01
35778;BME280;21899;42.662;23.316;2023-04-04T10:09:53;93338.34;;;4.91;96.16
35778;BME280;21899;42.662;23.316;2023-04-04T10:12:23;93356.63;;;5.17;95.61
35778;BME280;21899;42.662;23.316;2023-04-04T10:14:59;93364.59;;;5.17;94.96
35778;BME280;21899;42.662;23.316;2023-04-04T10:17:39;93367.69;;;5.30;94.71
35778;BME280;21899;42.662;23.316;2023-04-04T10:20:06;93366.97;;;5.44;93.66
35778;BME280;21899;42.662;23.316;2023-04-04T10:22:34;93364.69;;;5.49;92.03
35778;BME280;21899;42.662;23.316;2023-04-04T10:25:00;93382.88;;;5.44;92.86
35778;BME280;21899;42.662;23.316;2023-04-04T10:27:26;93383.25;;;5.39;92.06
35778;BME280;21899;42.662;23.316;2023-04-04T10:29:51;93371.06;;;5.23;92.94
35778;BME280;21899;42.662;23.316;2023-04-04T10:32:27;93387.75;;;5.34;93.68
35778;BME280;21899;42.662;23.316;2023-04-04T10:35:02;93383.59;;;5.33;94.27
35778;BME280;21899;42.662;23.316;2023-04-04T10:37:36;93395.69;;;5.27;92.24
35778;BME280;21899;42.662;23.316;2023-04-04T10:40:09;93388.50;;;5.24;93.60
35778;BME280;21899;42.662;23.316;2023-04-04T10:42:41;93405.19;;;5.28;92.99
35778;BME280;21899;42.662;23.316;2023-04-04T10:45:09;93399.47;;;5.19;90.33
35778;BME280;21899;42.662;23.316;2023-04-04T10:47:38;93394.50;;;5.04;89.86
35778;BME280;21899;42.662;23.316;2023-04-04T10:50:04;93402.06;;;5.05;91.52
35778;BME280;21899;42.662;23.316;2023-04-04T10:52:44;93412.34;;;5.17;90.43
35778;BME280;21899;42.662;23.316;2023-04-04T10:55:13;93412.78;;;5.33;90.02
35778;BME280;21899;42.662;23.316;2023-04-04T10:57:45;93409.75;;;5.42;88.44
35778;BME280;21899;42.662;23.316;2023-04-04T11:00:13;93421.13;;;5.39;89.55
35778;BME280;21899;42.662;23.316;2023-04-04T11:02:58;93409.69;;;5.14;88.60
35778;BME280;21899;42.662;23.316;2023-04-04T11:05:26;93414.25;;;5.27;87.55
35778;BME280;21899;42.662;23.316;2023-04-04T11:07:58;93417.28;;;5.22;88.17
35778;BME280;21899;42.662;23.316;2023-04-04T11:10:26;93419.50;;;5.06;88.58
35778;BME280;21899;42.662;23.316;2023-04-04T11:12:53;93429.44;;;5.23;90.01
35778;BME280;21899;42.662;23.316;2023-04-04T11:15:23;93430.19;;;5.27;87.88
35778;BME280;21899;42.662;23.316;2023-04-04T11:17:55;93427.41;;;4.99;87.60
35778;BME280;21899;42.662;23.316;2023-04-04T11:20:35;93425.47;;;4.89;88.83
35778;BME280;21899;42.662;23.316;2023-04-04T11:23:09;93430.31;;;4.73;90.00
35778;BME280;21899;42.662;23.316;2023-04-04T11:25:52;93439.59;;;4.46;91.37
35778;BME280;21899;42.662;23.316;2023-04-04T11:34:02;93443.28;;;4.96;90.39
35778;BME280;21899;42.662;23.316;2023-04-04T11:39:02;93435.16;;;5.36;88.50
35778;BME280;21899;42.662;23.316;2023-04-04T11:44:38;93454.88;;;5.39;88.39
35778;BME280;21899;42.662;23.316;2023-04-04T11:49:32;93449.00;;;4.98;89.90
35778;BME280;21899;42.662;23.316;2023-04-04T11:52:03;93443.72;;;5.01;91.48
35778;BME280;21899;42.662;23.316;2023-04-04T11:54:29;93437.66;;;4.97;90.84
35778;BME280;21899;42.662;23.316;2023-04-04T11:56:56;93443.00;;;5.08;91.63
35778;BME280;21899;42.662;23.316;2023-04-04T11:59:21;93433.06;;;4.87;90.13
35778;BME280;21899;42.662;23.316;2023-04-04T12:01:47;93445.22;;;4.95;90.81
35778;BME280;21899;42.662;23.316;2023-04-04T12:04:17;93441.84;;;5.05;91.12
35778;BME280;21899;42.662;23.316;2023-04-04T12:06:47;93441.47;;;5.03;89.96
35778;BME280;21899;42.662;23.316;2023-04-04T12:09:15;93446.75;;;5.03;88.55
35778;BME280;21899;42.662;23.316;2023-04-04T12:11:43;93441.38;;;4.89;89.48
35778;BME280;21899;42.662;23.316;2023-04-04T12:14:18;93440.66;;;4.92;89.89
35778;BME280;21899;42.662;23.316;2023-04-04T12:16:46;93452.34;;;4.88;90.21
35778;BME280;21899;42.662;23.316;2023-04-04T12:19:12;93448.66;;;5.03;90.09
35778;BME280;21899;42.662;23.316;2023-04-04T12:21:38;93454.94;;;4.77;89.17
35778;BME280;21899;42.662;23.316;2023-04-04T12:24:06;93453.84;;;4.82;89.86
35778;BME280;21899;42.662;23.316;2023-04-04T12:26:32;93460.63;;;4.79;89.75
35778;BME280;21899;42.662;23.316;2023-04-04T12:28:57;93465.50;;;4.70;90.38
35778;BME280;21899;42.662;23.316;2023-04-04T12:31:27;93455.59;;;4.60;90.84
35778;BME280;21899;42.662;23.316;2023-04-04T12:33:54;93465.22;;;4.32;92.11
35778;BME280;21899;42.662;23.316;2023-04-04T12:36:19;93457.91;;;4.15;95.06
35778;BME280;21899;42.662;23.316;2023-04-04T12:39:08;93465.13;;;4.21;96.46
35778;BME280;21899;42.662;23.316;2023-04-04T12:41:52;93461.69;;;4.17;96.61
35778;BME280;21899;42.662;23.316;2023-04-04T12:44:38;93471.66;;;3.90;96.88
35778;BME280;21899;42.662;23.316;2023-04-04T12:47:05;93480.25;;;3.80;98.24
35778;BME280;21899;42.662;23.316;2023-04-04T12:49:34;93471.50;;;3.73;97.02
35778;BME280;21899;42.662;23.316;2023-04-04T12:52:04;93474.06;;;3.66;98.01
35778;BME280;21899;42.662;23.316;2023-04-04T12:54:33;93484.69;;;3.69;97.55
35778;BME280;21899;42.662;23.316;2023-04-04T12:57:02;93462.81;;;3.39;97.73
35778;BME280;21899;42.662;23.316;2023-04-04T12:59:33;93480.06;;;3.30;99.74
35778;BME280;21899;42.662;23.316;2023-04-04T13:02:00;93478.19;;;3.30;100.00
35778;BME280;21899;42.662;23.316;2023-04-04T13:04:26;93482.81;;;3.37;99.61
35778;BME280;21899;42.662;23.316;2023-04-04T13:06:52;93484.47;;;3.48;99.89
35778;BME280;21899;42.662;23.316;2023-04-04T13:09:19;93483.44;;;3.60;100.00
35778;BME280;21899;42.662;23.316;2023-04-04T13:14:24;93499.31;;;3.60;100.00